Monday, November 20, 2017, 4:23 AM EST

KUNV, State College, University Park Airport

Location: State College, PA, United States Lat: 40.85
Local Time: 4:23 AM EST ( 9:23 GMT) Lon: -77.85
Time Zone: US/Eastern Elev: 1240 ft

Show me the last for .
Show Decoded

2017-11-20 03:35 METAR KUNV 200835Z AUTO 26015G21KT 10SM OVC060 00/M04 A2997 RMK AO2 T10051045 =
2017-11-20 03:15 METAR KUNV 200815Z AUTO 25014G19KT 10SM -SN SCT028 BKN060 00/M04 A2996 RMK AO2
                 T10051044 =
2017-11-20 02:55 METAR KUNV 200755Z AUTO 26014G17KT 10SM SCT030 BKN037 BKN060 00/M05 A2996 RMK
                 AO2 T10051050 =
2017-11-20 02:40 METAR KUNV 200740Z AUTO 26016G20KT 10SM BKN035 OVC070 00/M05 A2996 RMK AO2
                 T10041049 =
2017-11-20 02:15 METAR KUNV 200715Z AUTO 26013G18KT 10SM SCT027 SCT037 OVC070 00/M05 A2996 RMK
                 AO2 T10051046 =
2017-11-20 01:55 METAR KUNV 200655Z AUTO 26012G20KT 10SM SCT030 BKN038 OVC070 00/M04 A2995 RMK
                 AO2 T10031041 =
2017-11-20 01:35 METAR KUNV 200635Z AUTO 25013G18KT 10SM -SN BKN035 OVC070 00/M04 A2994 RMK AO2
                 T10021038 =
2017-11-20 01:15 METAR KUNV 200615Z AUTO 26014G19KT 10SM -SN BKN037 BKN044 OVC070 00/M03 A2993
                 RMK AO2 T10051032 =
2017-11-20 00:55 METAR KUNV 200555Z AUTO 27009KT 5SM -SN SCT005 BKN029 OVC037 M01/M02 A2993 RMK
                 AO2 T10101025 10017 21012 =
2017-11-20 00:35 METAR KUNV 200535Z AUTO 27015G22KT 1SM SN OVC005 M01/M02 A2993 RMK AO2 T10111025
                 =
2017-11-20 00:15 METAR KUNV 200515Z AUTO 27010G19KT 2SM -SN OVC008 M01/M02 A2991 RMK AO2
                 T10091025 =
2017-11-19 23:55 METAR KUNV 200455Z AUTO 27012G20KT 4SM -SN SCT010 BKN022 OVC050 00/M03 A2991 RMK
                 AO2 T00001030 =
2017-11-19 23:35 METAR KUNV 200435Z AUTO 29010KT 10SM -SN SCT025 BKN050 OVC070 00/M03 A2990 RMK
                 AO2 T00001030 =
2017-11-19 23:15 METAR KUNV 200415Z AUTO 29010G21KT 10SM SCT018 BKN048 OVC070 00/M03 A2988 RMK
                 AO2 T00001032 =
2017-11-19 22:50 METAR KUNV 200350Z AUTO 28016G21KT 7SM -SN SCT018 BKN039 OVC070 00/M03 A2988 RMK
                 AO2 T00001031 400871002 =
2017-11-19 22:35 METAR KUNV 200335Z AUTO 29014G18KT 10SM -SN SCT026 SCT036 BKN045 00/M03 A2988
                 RMK AO2 T00001035 =
2017-11-19 22:15 METAR KUNV 200315Z AUTO 29016G25KT 10SM SCT008 SCT022 BKN038 00/M03 A2987 RMK
                 AO2 T00001031 =
2017-11-19 21:53 METAR KUNV 200253Z COR 30011G24KT 3SM -SN SCT008 BKN027 OVC037 00/M03 A2986 =
2017-11-19 20:53 METAR KUNV 200153Z 28011G21KT 10SM SCT030 OVC080 01/M04 A2983 =
2017-11-19 19:53 METAR KUNV 200053Z 28011G18KT 10SM SCT027 BKN033 OVC043 01/M02 A2981 =
2017-11-19 18:53 METAR KUNV 192353Z 29013G20KT 10SM BKN031 BKN065 OVC085 02/M03 A2979 =
2017-11-19 17:53 METAR KUNV 192253Z 29010G20KT 7SM SCT031 BKN060 OVC075 02/M02 A2977 =
2017-11-19 16:53 METAR KUNV 192153Z 29018G25KT 7SM SCT065 02/M03 A2975 =
2017-11-19 15:53 METAR KUNV 192053Z 28010G20KT 7SM SCT020 OVC060 02/M01 A2973 =
2017-11-19 15:20 METAR KUNV 192020Z 27015G27KT 5SM -SN SCT005 BKN016 OVC043 01/M01 A2972 =
2017-11-19 15:10 METAR KUNV 192010Z 25012G25KT 1SM SN SCT015 BKN040 OVC060 03/00 A2971 =
2017-11-19 14:53 METAR KUNV 191953Z 25012G20KT 10SM SCT033 BKN046 OVC060 04/M01 A2970 =
2017-11-19 13:53 METAR KUNV 191853Z 27015G25KT 10SM SCT038 BKN045 OVC050 04/M02 A2970 =
2017-11-19 12:53 METAR KUNV 191753Z 27015G25KT 10SM SCT034 OVC048 04/M03 A2968 =
2017-11-19 11:53 METAR KUNV 191653Z 27020G30KT 10SM SCT032 SCT038 OVC048 04/M01 A2967 =
2017-11-19 10:53 METAR KUNV 191553Z 27020G30KT 10SM SCT025 BKN031 OVC041 04/00 A2966 =
2017-11-19 09:53 METAR KUNV 191453Z 30010G20KT 7SM -RA BKN020 BKN028 OVC050 03/01 A2964 =
2017-11-19 08:53 METAR KUNV 191353Z 30020KT 7SM RA SCT023 BKN027 OVC060 04/01 A2959 =
2017-11-19 07:53 METAR KUNV 191253Z 29016G26KT 10SM SCT016 BKN023 OVC031 04/01 A2956 =
2017-11-19 06:53 METAR KUNV 191153Z 29017G28KT 10SM SCT026 BKN030 BKN037 04/01 A2952 =
2017-11-19 05:53 METAR KUNV 191053Z COR 28020KT 5SM -RA SCT017 BKN021 OVC048 04/02 A2946 =
2017-11-19 05:35 METAR KUNV 191035Z AUTO 26016G25KT 10SM -DZ SCT019 BKN026 OVC031 04/02 A2945 RMK
                 AO2 T00400020 =
2017-11-19 05:15 METAR KUNV 191015Z AUTO 27018G25KT 10SM -DZ SCT019 BKN026 OVC030 04/02 A2943 RMK
                 AO2 T00400020 =
2017-11-19 04:55 METAR KUNV 190955Z AUTO 26018G27KT 10SM -DZ SCT022 OVC027 04/02 A2941 RMK AO2
                 T00430021 =
2017-11-19 04:35 METAR KUNV 190935Z AUTO 26017G23KT 10SM DZ SCT020 BKN026 OVC085 05/03 A2938 RMK
                 AO2 T00480025 =

Support USWX by starting your Amazon purchase here.